Port Hueneme, California
Current Conditions -  °F | °C
As of 2:51 AM on Friday 24 Oct 2014 (Local Time) from KOXR Reporting Station
Clear Clear  
Wind Chill: 14°   Ceiling: Unl
Heat Index: 14°   Visibility: 10mi
Dew Point:   Wind: 6mph
Humidity: 67%   Direction: 70°ENE
Pressure: 29.95"   Gusts: NA
Location:  34.15°N, 119.19°W
Report Text: KOXR 240951Z AUTO 07005KT 10SM CLR 14/08 A2995 RMK AO2 SLP141 T01440083
Loading
Personal Weather Stations






























Interactive Weather Map
Tropical Storm Tracking
New forecast layout! Learn more

10-Day Weather Forecast

Advertisements
Track Severe Weather on mobile